sensor_id;sensor_type;location;lat;lon;timestamp;P1;durP1;ratioP1;P2;durP2;ratioP2
11709;SDS011;5911;51.036;6.972;2023-07-20T00:01:05;10.40;;;5.13;;
11709;SDS011;5911;51.036;6.972;2023-07-20T00:03:33;5.82;;;4.22;;
11709;SDS011;5911;51.036;6.972;2023-07-20T00:06:01;5.95;;;4.13;;
11709;SDS011;5911;51.036;6.972;2023-07-20T00:08:32;7.78;;;3.63;;
11709;SDS011;5911;51.036;6.972;2023-07-20T00:10:59;5.25;;;3.47;;
11709;SDS011;5911;51.036;6.972;2023-07-20T00:13:27;4.60;;;3.17;;
11709;SDS011;5911;51.036;6.972;2023-07-20T00:15:55;5.63;;;3.33;;
11709;SDS011;5911;51.036;6.972;2023-07-20T00:18:23;6.90;;;3.00;;
11709;SDS011;5911;51.036;6.972;2023-07-20T00:20:51;5.15;;;2.97;;
11709;SDS011;5911;51.036;6.972;2023-07-20T00:23:19;7.40;;;2.85;;
11709;SDS011;5911;51.036;6.972;2023-07-20T00:25:50;6.25;;;2.72;;
11709;SDS011;5911;51.036;6.972;2023-07-20T00:28:18;5.50;;;3.42;;
11709;SDS011;5911;51.036;6.972;2023-07-20T00:30:47;5.75;;;2.80;;
11709;SDS011;5911;51.036;6.972;2023-07-20T00:33:16;7.70;;;3.20;;
11709;SDS011;5911;51.036;6.972;2023-07-20T00:35:45;7.00;;;3.22;;
11709;SDS011;5911;51.036;6.972;2023-07-20T00:38:15;4.93;;;2.92;;
11709;SDS011;5911;51.036;6.972;2023-07-20T00:40:43;4.80;;;3.25;;
11709;SDS011;5911;51.036;6.972;2023-07-20T00:43:12;5.22;;;2.58;;
11709;SDS011;5911;51.036;6.972;2023-07-20T00:45:40;7.72;;;2.53;;
11709;SDS011;5911;51.036;6.972;2023-07-20T00:48:08;6.85;;;3.10;;
11709;SDS011;5911;51.036;6.972;2023-07-20T00:50:36;5.28;;;3.50;;
11709;SDS011;5911;51.036;6.972;2023-07-20T00:53:04;6.45;;;3.00;;
11709;SDS011;5911;51.036;6.972;2023-07-20T00:55:32;6.85;;;2.95;;
11709;SDS011;5911;51.036;6.972;2023-07-20T00:58:01;5.38;;;2.85;;
11709;SDS011;5911;51.036;6.972;2023-07-20T01:00:30;6.57;;;2.80;;
11709;SDS011;5911;51.036;6.972;2023-07-20T01:02:58;7.57;;;2.75;;
11709;SDS011;5911;51.036;6.972;2023-07-20T01:05:28;7.25;;;2.88;;
11709;SDS011;5911;51.036;6.972;2023-07-20T01:08:05;4.55;;;2.78;;
11709;SDS011;5911;51.036;6.972;2023-07-20T01:10:39;5.40;;;3.17;;
11709;SDS011;5911;51.036;6.972;2023-07-20T01:13:10;5.40;;;3.13;;
11709;SDS011;5911;51.036;6.972;2023-07-20T01:15:40;4.63;;;3.05;;
11709;SDS011;5911;51.036;6.972;2023-07-20T01:18:08;6.70;;;3.30;;
11709;SDS011;5911;51.036;6.972;2023-07-20T01:20:36;5.70;;;2.88;;
11709;SDS011;5911;51.036;6.972;2023-07-20T01:23:20;6.10;;;2.47;;
11709;SDS011;5911;51.036;6.972;2023-07-20T01:26:18;5.97;;;3.30;;
11709;SDS011;5911;51.036;6.972;2023-07-20T01:29:04;4.85;;;2.88;;
11709;SDS011;5911;51.036;6.972;2023-07-20T01:31:44;6.60;;;2.92;;
11709;SDS011;5911;51.036;6.972;2023-07-20T01:34:13;6.88;;;3.17;;
11709;SDS011;5911;51.036;6.972;2023-07-20T01:36:44;6.05;;;2.92;;
11709;SDS011;5911;51.036;6.972;2023-07-20T01:39:15;2.70;;;2.47;;
11709;SDS011;5911;51.036;6.972;2023-07-20T01:41:44;4.00;;;2.83;;
11709;SDS011;5911;51.036;6.972;2023-07-20T01:44:13;5.20;;;3.00;;
11709;SDS011;5911;51.036;6.972;2023-07-20T01:46:41;4.68;;;2.85;;
11709;SDS011;5911;51.036;6.972;2023-07-20T01:49:10;5.57;;;2.80;;
11709;SDS011;5911;51.036;6.972;2023-07-20T01:51:38;6.65;;;3.03;;
11709;SDS011;5911;51.036;6.972;2023-07-20T01:54:06;4.70;;;2.97;;
11709;SDS011;5911;51.036;6.972;2023-07-20T01:56:35;6.53;;;2.50;;
11709;SDS011;5911;51.036;6.972;2023-07-20T01:59:02;4.30;;;2.88;;
11709;SDS011;5911;51.036;6.972;2023-07-20T02:01:33;7.88;;;3.00;;
11709;SDS011;5911;51.036;6.972;2023-07-20T02:04:01;4.20;;;2.80;;
11709;SDS011;5911;51.036;6.972;2023-07-20T02:06:32;4.30;;;3.00;;
11709;SDS011;5911;51.036;6.972;2023-07-20T02:09:00;5.78;;;2.63;;
11709;SDS011;5911;51.036;6.972;2023-07-20T02:11:30;2.83;;;2.40;;
11709;SDS011;5911;51.036;6.972;2023-07-20T02:13:58;3.90;;;2.47;;
11709;SDS011;5911;51.036;6.972;2023-07-20T02:16:26;5.73;;;2.47;;
11709;SDS011;5911;51.036;6.972;2023-07-20T02:18:54;3.22;;;2.47;;
11709;SDS011;5911;51.036;6.972;2023-07-20T02:21:23;5.95;;;2.67;;
11709;SDS011;5911;51.036;6.972;2023-07-20T02:23:52;3.50;;;2.47;;
11709;SDS011;5911;51.036;6.972;2023-07-20T02:26:20;3.78;;;2.55;;
11709;SDS011;5911;51.036;6.972;2023-07-20T02:28:48;3.95;;;2.75;;
11709;SDS011;5911;51.036;6.972;2023-07-20T02:31:16;4.07;;;2.67;;
11709;SDS011;5911;51.036;6.972;2023-07-20T02:33:44;2.67;;;2.28;;
11709;SDS011;5911;51.036;6.972;2023-07-20T02:36:12;4.68;;;2.40;;
11709;SDS011;5911;51.036;6.972;2023-07-20T02:38:40;5.88;;;2.75;;
11709;SDS011;5911;51.036;6.972;2023-07-20T02:41:09;3.95;;;2.78;;
11709;SDS011;5911;51.036;6.972;2023-07-20T02:43:37;5.15;;;2.40;;
11709;SDS011;5911;51.036;6.972;2023-07-20T02:46:04;4.50;;;2.20;;
11709;SDS011;5911;51.036;6.972;2023-07-20T02:48:32;4.90;;;2.50;;
11709;SDS011;5911;51.036;6.972;2023-07-20T02:51:00;4.25;;;2.40;;
11709;SDS011;5911;51.036;6.972;2023-07-20T02:53:28;4.25;;;2.30;;
11709;SDS011;5911;51.036;6.972;2023-07-20T02:55:55;3.65;;;2.47;;
11709;SDS011;5911;51.036;6.972;2023-07-20T02:58:24;4.53;;;3.00;;
11709;SDS011;5911;51.036;6.972;2023-07-20T03:00:52;4.97;;;2.78;;
11709;SDS011;5911;51.036;6.972;2023-07-20T03:03:20;4.80;;;2.83;;
11709;SDS011;5911;51.036;6.972;2023-07-20T03:05:48;4.95;;;2.92;;
11709;SDS011;5911;51.036;6.972;2023-07-20T03:08:20;4.13;;;3.00;;
11709;SDS011;5911;51.036;6.972;2023-07-20T03:10:48;5.45;;;3.20;;
11709;SDS011;5911;51.036;6.972;2023-07-20T03:13:16;5.07;;;3.15;;
11709;SDS011;5911;51.036;6.972;2023-07-20T03:15:45;5.40;;;2.95;;
11709;SDS011;5911;51.036;6.972;2023-07-20T03:18:13;6.85;;;3.45;;
11709;SDS011;5911;51.036;6.972;2023-07-20T03:20:41;4.45;;;3.15;;
11709;SDS011;5911;51.036;6.972;2023-07-20T03:23:08;5.28;;;3.15;;
11709;SDS011;5911;51.036;6.972;2023-07-20T03:25:36;3.40;;;2.85;;
11709;SDS011;5911;51.036;6.972;2023-07-20T03:28:05;5.75;;;3.05;;
11709;SDS011;5911;51.036;6.972;2023-07-20T03:30:34;7.13;;;2.97;;
11709;SDS011;5911;51.036;6.972;2023-07-20T03:33:03;4.68;;;2.85;;
11709;SDS011;5911;51.036;6.972;2023-07-20T03:35:31;3.70;;;2.88;;
11709;SDS011;5911;51.036;6.972;2023-07-20T03:37:59;5.38;;;3.45;;
11709;SDS011;5911;51.036;6.972;2023-07-20T03:40:27;4.00;;;2.95;;
11709;SDS011;5911;51.036;6.972;2023-07-20T03:42:55;4.57;;;3.10;;
11709;SDS011;5911;51.036;6.972;2023-07-20T03:45:23;8.50;;;3.35;;
11709;SDS011;5911;51.036;6.972;2023-07-20T03:47:50;7.68;;;3.22;;
11709;SDS011;5911;51.036;6.972;2023-07-20T03:50:20;4.80;;;3.42;;
11709;SDS011;5911;51.036;6.972;2023-07-20T03:52:47;6.28;;;3.40;;
11709;SDS011;5911;51.036;6.972;2023-07-20T03:55:15;5.75;;;3.00;;
11709;SDS011;5911;51.036;6.972;2023-07-20T03:57:43;5.88;;;3.20;;
11709;SDS011;5911;51.036;6.972;2023-07-20T04:00:11;5.85;;;3.45;;
11709;SDS011;5911;51.036;6.972;2023-07-20T04:02:41;9.55;;;3.78;;
11709;SDS011;5911;51.036;6.972;2023-07-20T04:05:09;6.80;;;3.75;;
11709;SDS011;5911;51.036;6.972;2023-07-20T04:07:38;4.47;;;3.10;;
11709;SDS011;5911;51.036;6.972;2023-07-20T04:10:06;8.05;;;3.83;;
11709;SDS011;5911;51.036;6.972;2023-07-20T04:12:35;6.13;;;3.63;;
11709;SDS011;5911;51.036;6.972;2023-07-20T04:15:03;3.70;;;3.00;;
11709;SDS011;5911;51.036;6.972;2023-07-20T04:17:33;7.13;;;3.63;;
11709;SDS011;5911;51.036;6.972;2023-07-20T04:20:01;4.75;;;3.50;;
11709;SDS011;5911;51.036;6.972;2023-07-20T04:22:29;6.63;;;4.00;;
11709;SDS011;5911;51.036;6.972;2023-07-20T04:24:58;5.60;;;3.50;;
11709;SDS011;5911;51.036;6.972;2023-07-20T04:27:26;4.97;;;2.92;;
11709;SDS011;5911;51.036;6.972;2023-07-20T04:29:54;5.28;;;3.50;;
11709;SDS011;5911;51.036;6.972;2023-07-20T04:32:22;6.05;;;3.40;;
11709;SDS011;5911;51.036;6.972;2023-07-20T04:34:51;5.22;;;3.45;;
11709;SDS011;5911;51.036;6.972;2023-07-20T04:37:19;7.80;;;3.60;;
11709;SDS011;5911;51.036;6.972;2023-07-20T04:39:48;5.20;;;3.90;;
11709;SDS011;5911;51.036;6.972;2023-07-20T04:42:17;6.55;;;3.50;;
11709;SDS011;5911;51.036;6.972;2023-07-20T04:44:46;7.93;;;3.47;;
11709;SDS011;5911;51.036;6.972;2023-07-20T04:47:15;6.53;;;3.38;;
11709;SDS011;5911;51.036;6.972;2023-07-20T04:49:43;4.90;;;3.60;;
11709;SDS011;5911;51.036;6.972;2023-07-20T04:52:10;5.25;;;3.10;;
11709;SDS011;5911;51.036;6.972;2023-07-20T04:54:38;6.57;;;3.47;;
11709;SDS011;5911;51.036;6.972;2023-07-20T04:57:10;5.88;;;3.17;;
11709;SDS011;5911;51.036;6.972;2023-07-20T04:59:45;7.18;;;4.03;;
11709;SDS011;5911;51.036;6.972;2023-07-20T05:02:13;7.70;;;3.90;;
11709;SDS011;5911;51.036;6.972;2023-07-20T05:04:41;4.53;;;3.33;;
11709;SDS011;5911;51.036;6.972;2023-07-20T05:07:09;6.55;;;4.15;;
11709;SDS011;5911;51.036;6.972;2023-07-20T05:09:37;5.30;;;4.00;;
11709;SDS011;5911;51.036;6.972;2023-07-20T05:12:05;7.00;;;3.85;;
11709;SDS011;5911;51.036;6.972;2023-07-20T05:14:33;6.90;;;4.10;;
11709;SDS011;5911;51.036;6.972;2023-07-20T05:17:03;7.07;;;3.80;;
11709;SDS011;5911;51.036;6.972;2023-07-20T05:19:31;6.78;;;3.92;;
11709;SDS011;5911;51.036;6.972;2023-07-20T05:21:59;7.90;;;3.58;;
11709;SDS011;5911;51.036;6.972;2023-07-20T05:24:27;8.77;;;4.05;;
11709;SDS011;5911;51.036;6.972;2023-07-20T05:26:55;7.03;;;4.18;;
11709;SDS011;5911;51.036;6.972;2023-07-20T05:29:22;6.60;;;4.05;;
11709;SDS011;5911;51.036;6.972;2023-07-20T05:31:50;8.05;;;4.45;;
11709;SDS011;5911;51.036;6.972;2023-07-20T05:34:20;9.13;;;4.75;;
11709;SDS011;5911;51.036;6.972;2023-07-20T05:39:40;6.68;;;4.75;;
11709;SDS011;5911;51.036;6.972;2023-07-20T05:42:08;9.00;;;4.88;;
11709;SDS011;5911;51.036;6.972;2023-07-20T05:44:35;6.63;;;4.82;;
11709;SDS011;5911;51.036;6.972;2023-07-20T05:47:06;8.40;;;5.10;;
11709;SDS011;5911;51.036;6.972;2023-07-20T05:49:36;10.63;;;4.82;;
11709;SDS011;5911;51.036;6.972;2023-07-20T05:52:04;8.98;;;5.95;;
11709;SDS011;5911;51.036;6.972;2023-07-20T05:54:33;9.32;;;6.15;;
11709;SDS011;5911;51.036;6.972;2023-07-20T05:57:00;12.48;;;7.13;;
11709;SDS011;5911;51.036;6.972;2023-07-20T05:59:28;11.43;;;7.05;;
11709;SDS011;5911;51.036;6.972;2023-07-20T06:01:56;8.18;;;6.40;;
11709;SDS011;5911;51.036;6.972;2023-07-20T06:04:24;10.07;;;7.32;;
11709;SDS011;5911;51.036;6.972;2023-07-20T06:06:54;10.07;;;6.93;;
11709;SDS011;5911;51.036;6.972;2023-07-20T06:09:21;9.23;;;7.20;;
11709;SDS011;5911;51.036;6.972;2023-07-20T06:11:49;9.57;;;7.30;;
11709;SDS011;5911;51.036;6.972;2023-07-20T06:14:17;8.38;;;6.65;;
11709;SDS011;5911;51.036;6.972;2023-07-20T06:16:45;8.18;;;7.15;;
11709;SDS011;5911;51.036;6.972;2023-07-20T06:19:13;9.23;;;7.28;;
11709;SDS011;5911;51.036;6.972;2023-07-20T06:21:41;8.65;;;6.78;;
11709;SDS011;5911;51.036;6.972;2023-07-20T06:24:10;10.57;;;6.90;;
11709;SDS011;5911;51.036;6.972;2023-07-20T06:26:38;9.43;;;6.57;;
11709;SDS011;5911;51.036;6.972;2023-07-20T06:29:07;12.32;;;7.38;;
11709;SDS011;5911;51.036;6.972;2023-07-20T06:31:36;8.50;;;7.07;;
11709;SDS011;5911;51.036;6.972;2023-07-20T06:34:05;11.13;;;9.23;;
11709;SDS011;5911;51.036;6.972;2023-07-20T06:36:33;11.45;;;9.10;;
11709;SDS011;5911;51.036;6.972;2023-07-20T06:39:01;12.45;;;10.27;;
11709;SDS011;5911;51.036;6.972;2023-07-20T06:41:34;11.02;;;9.93;;
11709;SDS011;5911;51.036;6.972;2023-07-20T06:44:04;12.23;;;11.13;;
11709;SDS011;5911;51.036;6.972;2023-07-20T06:46:32;11.80;;;10.60;;
11709;SDS011;5911;51.036;6.972;2023-07-20T06:49:00;12.27;;;8.98;;
11709;SDS011;5911;51.036;6.972;2023-07-20T06:51:31;9.82;;;8.25;;
11709;SDS011;5911;51.036;6.972;2023-07-20T06:53:59;10.05;;;8.25;;
11709;SDS011;5911;51.036;6.972;2023-07-20T06:56:28;10.88;;;8.45;;
11709;SDS011;5911;51.036;6.972;2023-07-20T06:59:01;11.55;;;8.82;;
11709;SDS011;5911;51.036;6.972;2023-07-20T07:01:29;9.35;;;7.78;;
11709;SDS011;5911;51.036;6.972;2023-07-20T07:03:57;9.90;;;7.43;;
11709;SDS011;5911;51.036;6.972;2023-07-20T07:06:25;8.63;;;7.45;;
11709;SDS011;5911;51.036;6.972;2023-07-20T07:08:54;8.55;;;7.75;;
11709;SDS011;5911;51.036;6.972;2023-07-20T07:11:22;10.70;;;7.47;;
11709;SDS011;5911;51.036;6.972;2023-07-20T07:13:50;7.45;;;6.75;;
11709;SDS011;5911;51.036;6.972;2023-07-20T07:16:20;8.95;;;7.82;;
11709;SDS011;5911;51.036;6.972;2023-07-20T07:18:49;9.52;;;7.75;;
11709;SDS011;5911;51.036;6.972;2023-07-20T07:21:18;8.60;;;7.72;;
11709;SDS011;5911;51.036;6.972;2023-07-20T07:23:46;9.98;;;7.93;;
11709;SDS011;5911;51.036;6.972;2023-07-20T07:26:14;8.23;;;7.15;;
11709;SDS011;5911;51.036;6.972;2023-07-20T07:28:42;7.18;;;6.25;;
11709;SDS011;5911;51.036;6.972;2023-07-20T07:31:13;8.32;;;7.38;;
11709;SDS011;5911;51.036;6.972;2023-07-20T07:33:43;8.38;;;7.43;;
11709;SDS011;5911;51.036;6.972;2023-07-20T07:36:11;9.35;;;7.60;;
11709;SDS011;5911;51.036;6.972;2023-07-20T07:38:38;8.10;;;7.00;;
11709;SDS011;5911;51.036;6.972;2023-07-20T07:41:26;8.63;;;7.00;;
11709;SDS011;5911;51.036;6.972;2023-07-20T07:43:54;7.38;;;6.60;;
11709;SDS011;5911;51.036;6.972;2023-07-20T07:46:22;8.18;;;7.00;;
11709;SDS011;5911;51.036;6.972;2023-07-20T07:48:51;7.72;;;6.47;;
11709;SDS011;5911;51.036;6.972;2023-07-20T07:51:22;7.28;;;5.75;;
11709;SDS011;5911;51.036;6.972;2023-07-20T07:53:50;7.80;;;5.60;;
11709;SDS011;5911;51.036;6.972;2023-07-20T07:56:18;6.07;;;5.47;;
11709;SDS011;5911;51.036;6.972;2023-07-20T07:58:49;7.88;;;5.78;;
11709;SDS011;5911;51.036;6.972;2023-07-20T08:01:18;9.60;;;6.53;;
11709;SDS011;5911;51.036;6.972;2023-07-20T08:03:46;6.88;;;5.80;;
11709;SDS011;5911;51.036;6.972;2023-07-20T08:06:15;7.55;;;5.30;;
11709;SDS011;5911;51.036;6.972;2023-07-20T08:08:43;6.93;;;5.80;;
11709;SDS011;5911;51.036;6.972;2023-07-20T08:11:11;6.45;;;5.85;;
11709;SDS011;5911;51.036;6.972;2023-07-20T08:13:41;6.63;;;5.38;;
11709;SDS011;5911;51.036;6.972;2023-07-20T08:16:09;5.18;;;4.68;;
11709;SDS011;5911;51.036;6.972;2023-07-20T08:18:36;7.68;;;5.03;;
11709;SDS011;5911;51.036;6.972;2023-07-20T08:21:05;4.82;;;4.32;;
11709;SDS011;5911;51.036;6.972;2023-07-20T08:23:34;6.18;;;4.90;;
11709;SDS011;5911;51.036;6.972;2023-07-20T08:26:02;5.88;;;4.80;;
11709;SDS011;5911;51.036;6.972;2023-07-20T08:28:30;5.97;;;4.85;;
11709;SDS011;5911;51.036;6.972;2023-07-20T08:30:57;6.18;;;4.82;;
11709;SDS011;5911;51.036;6.972;2023-07-20T08:33:25;5.47;;;4.47;;
11709;SDS011;5911;51.036;6.972;2023-07-20T08:35:56;12.63;;;4.53;;
11709;SDS011;5911;51.036;6.972;2023-07-20T08:38:24;4.78;;;3.67;;
11709;SDS011;5911;51.036;6.972;2023-07-20T08:40:53;9.48;;;3.75;;
11709;SDS011;5911;51.036;6.972;2023-07-20T08:43:22;3.35;;;2.47;;
11709;SDS011;5911;51.036;6.972;2023-07-20T08:45:51;4.55;;;1.98;;
11709;SDS011;5911;51.036;6.972;2023-07-20T08:48:21;2.92;;;2.05;;
11709;SDS011;5911;51.036;6.972;2023-07-20T08:50:50;3.45;;;2.28;;
11709;SDS011;5911;51.036;6.972;2023-07-20T08:53:19;3.33;;;1.67;;
11709;SDS011;5911;51.036;6.972;2023-07-20T08:55:48;5.70;;;2.33;;
11709;SDS011;5911;51.036;6.972;2023-07-20T08:58:20;2.15;;;1.70;;
11709;SDS011;5911;51.036;6.972;2023-07-20T09:00:48;2.88;;;2.00;;
11709;SDS011;5911;51.036;6.972;2023-07-20T09:03:18;3.00;;;2.15;;
11709;SDS011;5911;51.036;6.972;2023-07-20T09:05:46;3.13;;;2.17;;
11709;SDS011;5911;51.036;6.972;2023-07-20T09:08:14;3.25;;;1.50;;
11709;SDS011;5911;51.036;6.972;2023-07-20T09:10:42;2.80;;;1.65;;
11709;SDS011;5911;51.036;6.972;2023-07-20T09:13:13;1.67;;;1.40;;
11709;SDS011;5911;51.036;6.972;2023-07-20T09:15:46;3.80;;;1.70;;
11709;SDS011;5911;51.036;6.972;2023-07-20T09:18:23;2.08;;;1.40;;
11709;SDS011;5911;51.036;6.972;2023-07-20T09:20:51;4.05;;;1.80;;
11709;SDS011;5911;51.036;6.972;2023-07-20T09:23:20;1.55;;;1.40;;
11709;SDS011;5911;51.036;6.972;2023-07-20T09:25:57;2.03;;;1.85;;
11709;SDS011;5911;51.036;6.972;2023-07-20T09:28:25;2.70;;;1.50;;
11709;SDS011;5911;51.036;6.972;2023-07-20T09:30:55;2.75;;;1.52;;
11709;SDS011;5911;51.036;6.972;2023-07-20T09:33:24;1.70;;;1.60;;
11709;SDS011;5911;51.036;6.972;2023-07-20T09:35:53;3.42;;;1.92;;
11709;SDS011;5911;51.036;6.972;2023-07-20T09:38:24;2.55;;;1.70;;
11709;SDS011;5911;51.036;6.972;2023-07-20T09:40:55;2.78;;;1.70;;
11709;SDS011;5911;51.036;6.972;2023-07-20T09:43:26;3.42;;;1.60;;
11709;SDS011;5911;51.036;6.972;2023-07-20T09:45:58;1.98;;;1.10;;
11709;SDS011;5911;51.036;6.972;2023-07-20T09:48:26;2.22;;;1.20;;
11709;SDS011;5911;51.036;6.972;2023-07-20T09:50:57;2.38;;;1.38;;
11709;SDS011;5911;51.036;6.972;2023-07-20T09:53:25;3.70;;;1.40;;
11709;SDS011;5911;51.036;6.972;2023-07-20T09:55:54;1.65;;;1.20;;
11709;SDS011;5911;51.036;6.972;2023-07-20T09:58:21;1.92;;;1.30;;
11709;SDS011;5911;51.036;6.972;2023-07-20T10:00:50;1.55;;;1.45;;
11709;SDS011;5911;51.036;6.972;2023-07-20T10:03:22;1.52;;;1.42;;
11709;SDS011;5911;51.036;6.972;2023-07-20T10:06:00;1.50;;;1.40;;
11709;SDS011;5911;51.036;6.972;2023-07-20T10:08:33;2.85;;;1.40;;
11709;SDS011;5911;51.036;6.972;2023-07-20T10:11:09;2.85;;;1.63;;
11709;SDS011;5911;51.036;6.972;2023-07-20T10:13:39;1.95;;;1.50;;
11709;SDS011;5911;51.036;6.972;2023-07-20T10:16:11;1.40;;;1.30;;
11709;SDS011;5911;51.036;6.972;2023-07-20T10:18:46;2.97;;;1.20;;
11709;SDS011;5911;51.036;6.972;2023-07-20T10:21:17;1.27;;;1.00;;
11709;SDS011;5911;51.036;6.972;2023-07-20T10:23:52;2.05;;;1.20;;
11709;SDS011;5911;51.036;6.972;2023-07-20T10:26:20;1.95;;;1.30;;
11709;SDS011;5911;51.036;6.972;2023-07-20T10:28:49;1.40;;;1.05;;
11709;SDS011;5911;51.036;6.972;2023-07-20T10:31:17;1.52;;;1.10;;
11709;SDS011;5911;51.036;6.972;2023-07-20T10:33:47;2.78;;;1.27;;
11709;SDS011;5911;51.036;6.972;2023-07-20T10:36:17;1.80;;;1.30;;
11709;SDS011;5911;51.036;6.972;2023-07-20T10:38:57;1.48;;;0.90;;
11709;SDS011;5911;51.036;6.972;2023-07-20T10:41:27;3.15;;;1.15;;
11709;SDS011;5911;51.036;6.972;2023-07-20T10:43:58;2.00;;;1.10;;
11709;SDS011;5911;51.036;6.972;2023-07-20T10:49:27;2.20;;;1.27;;
11709;SDS011;5911;51.036;6.972;2023-07-20T10:51:56;1.98;;;1.15;;
11709;SDS011;5911;51.036;6.972;2023-07-20T10:54:34;1.17;;;1.08;;
11709;SDS011;5911;51.036;6.972;2023-07-20T10:57:23;2.50;;;1.13;;
11709;SDS011;5911;51.036;6.972;2023-07-20T10:59:53;0.90;;;0.73;;
11709;SDS011;5911;51.036;6.972;2023-07-20T11:02:41;1.33;;;1.08;;
11709;SDS011;5911;51.036;6.972;2023-07-20T11:08:09;0.90;;;0.80;;
11709;SDS011;5911;51.036;6.972;2023-07-20T11:10:38;1.10;;;1.00;;
11709;SDS011;5911;51.036;6.972;2023-07-20T11:13:20;3.72;;;1.33;;
11709;SDS011;5911;51.036;6.972;2023-07-20T11:16:01;2.50;;;0.90;;
11709;SDS011;5911;51.036;6.972;2023-07-20T11:18:32;2.85;;;0.93;;
11709;SDS011;5911;51.036;6.972;2023-07-20T11:21:03;2.65;;;1.05;;
11709;SDS011;5911;51.036;6.972;2023-07-20T11:23:37;1.05;;;0.82;;
11709;SDS011;5911;51.036;6.972;2023-07-20T11:26:05;1.20;;;0.70;;
11709;SDS011;5911;51.036;6.972;2023-07-20T11:28:34;1.48;;;1.05;;
11709;SDS011;5911;51.036;6.972;2023-07-20T11:31:02;1.83;;;0.70;;
11709;SDS011;5911;51.036;6.972;2023-07-20T11:33:29;0.93;;;0.75;;
11709;SDS011;5911;51.036;6.972;2023-07-20T11:35:57;1.42;;;0.82;;
11709;SDS011;5911;51.036;6.972;2023-07-20T11:38:26;2.13;;;0.95;;
11709;SDS011;5911;51.036;6.972;2023-07-20T11:40:54;1.63;;;0.80;;
11709;SDS011;5911;51.036;6.972;2023-07-20T11:43:23;2.00;;;0.80;;
11709;SDS011;5911;51.036;6.972;2023-07-20T11:45:52;1.50;;;0.70;;
11709;SDS011;5911;51.036;6.972;2023-07-20T11:48:20;1.20;;;0.80;;
11709;SDS011;5911;51.036;6.972;2023-07-20T11:50:48;1.48;;;0.80;;
11709;SDS011;5911;51.036;6.972;2023-07-20T11:53:16;2.20;;;0.88;;
11709;SDS011;5911;51.036;6.972;2023-07-20T11:55:45;1.90;;;1.00;;
11709;SDS011;5911;51.036;6.972;2023-07-20T11:58:13;3.42;;;1.45;;
11709;SDS011;5911;51.036;6.972;2023-07-20T12:00:43;2.88;;;1.00;;
11709;SDS011;5911;51.036;6.972;2023-07-20T12:03:12;1.27;;;0.80;;
11709;SDS011;5911;51.036;6.972;2023-07-20T12:05:39;2.60;;;0.93;;
11709;SDS011;5911;51.036;6.972;2023-07-20T12:08:10;3.22;;;0.80;;
11709;SDS011;5911;51.036;6.972;2023-07-20T12:10:39;0.75;;;0.73;;
11709;SDS011;5911;51.036;6.972;2023-07-20T12:13:11;2.22;;;0.90;;
11709;SDS011;5911;51.036;6.972;2023-07-20T12:15:39;2.85;;;0.80;;
11709;SDS011;5911;51.036;6.972;2023-07-20T12:18:07;2.50;;;0.98;;
11709;SDS011;5911;51.036;6.972;2023-07-20T12:20:36;1.42;;;1.02;;
11709;SDS011;5911;51.036;6.972;2023-07-20T12:23:09;1.80;;;1.10;;
11709;SDS011;5911;51.036;6.972;2023-07-20T12:25:37;2.20;;;0.90;;
11709;SDS011;5911;51.036;6.972;2023-07-20T12:28:07;1.20;;;0.98;;
11709;SDS011;5911;51.036;6.972;2023-07-20T12:30:38;0.93;;;0.90;;
11709;SDS011;5911;51.036;6.972;2023-07-20T12:33:06;2.17;;;0.70;;
11709;SDS011;5911;51.036;6.972;2023-07-20T12:35:34;1.20;;;0.93;;
11709;SDS011;5911;51.036;6.972;2023-07-20T12:38:02;4.20;;;0.80;;
11709;SDS011;5911;51.036;6.972;2023-07-20T12:40:31;6.85;;;1.30;;
11709;SDS011;5911;51.036;6.972;2023-07-20T12:42:59;1.95;;;1.08;;
11709;SDS011;5911;51.036;6.972;2023-07-20T12:45:27;1.63;;;0.80;;
11709;SDS011;5911;51.036;6.972;2023-07-20T12:47:56;5.00;;;1.17;;
11709;SDS011;5911;51.036;6.972;2023-07-20T12:50:24;2.13;;;1.20;;
11709;SDS011;5911;51.036;6.972;2023-07-20T12:52:52;1.35;;;1.00;;
11709;SDS011;5911;51.036;6.972;2023-07-20T12:55:20;1.33;;;0.70;;
11709;SDS011;5911;51.036;6.972;2023-07-20T12:57:48;2.15;;;0.90;;
11709;SDS011;5911;51.036;6.972;2023-07-20T13:00:16;3.00;;;1.50;;
11709;SDS011;5911;51.036;6.972;2023-07-20T13:02:44;1.00;;;0.80;;
11709;SDS011;5911;51.036;6.972;2023-07-20T13:05:14;1.30;;;0.80;;
11709;SDS011;5911;51.036;6.972;2023-07-20T13:07:42;3.92;;;0.85;;
11709;SDS011;5911;51.036;6.972;2023-07-20T13:10:13;2.25;;;1.00;;
11709;SDS011;5911;51.036;6.972;2023-07-20T13:12:41;1.05;;;0.90;;
11709;SDS011;5911;51.036;6.972;2023-07-20T13:15:10;1.83;;;1.00;;
11709;SDS011;5911;51.036;6.972;2023-07-20T13:17:38;2.45;;;1.00;;
11709;SDS011;5911;51.036;6.972;2023-07-20T13:20:07;5.32;;;1.35;;
11709;SDS011;5911;51.036;6.972;2023-07-20T13:22:38;0.98;;;0.90;;
11709;SDS011;5911;51.036;6.972;2023-07-20T13:25:07;3.00;;;1.00;;
11709;SDS011;5911;51.036;6.972;2023-07-20T13:27:36;0.90;;;0.70;;
11709;SDS011;5911;51.036;6.972;2023-07-20T13:30:05;1.73;;;1.13;;
11709;SDS011;5911;51.036;6.972;2023-07-20T13:32:36;1.90;;;0.85;;
11709;SDS011;5911;51.036;6.972;2023-07-20T13:35:09;1.00;;;0.85;;
11709;SDS011;5911;51.036;6.972;2023-07-20T13:37:39;1.38;;;0.82;;
11709;SDS011;5911;51.036;6.972;2023-07-20T13:40:07;3.20;;;1.02;;
11709;SDS011;5911;51.036;6.972;2023-07-20T13:42:38;2.72;;;0.80;;
11709;SDS011;5911;51.036;6.972;2023-07-20T13:45:07;3.20;;;0.98;;
11709;SDS011;5911;51.036;6.972;2023-07-20T13:47:35;1.67;;;1.10;;
11709;SDS011;5911;51.036;6.972;2023-07-20T13:50:03;1.35;;;0.90;;
11709;SDS011;5911;51.036;6.972;2023-07-20T13:52:31;1.65;;;1.10;;
11709;SDS011;5911;51.036;6.972;2023-07-20T13:55:04;2.85;;;1.05;;
11709;SDS011;5911;51.036;6.972;2023-07-20T13:57:33;1.80;;;1.00;;
11709;SDS011;5911;51.036;6.972;2023-07-20T14:00:01;1.67;;;1.00;;
11709;SDS011;5911;51.036;6.972;2023-07-20T14:02:37;2.78;;;1.10;;
11709;SDS011;5911;51.036;6.972;2023-07-20T14:05:08;3.95;;;0.85;;
11709;SDS011;5911;51.036;6.972;2023-07-20T14:07:39;1.25;;;1.05;;
11709;SDS011;5911;51.036;6.972;2023-07-20T14:10:08;2.72;;;1.00;;
11709;SDS011;5911;51.036;6.972;2023-07-20T14:12:39;8.05;;;1.40;;
11709;SDS011;5911;51.036;6.972;2023-07-20T14:15:07;1.75;;;0.90;;
11709;SDS011;5911;51.036;6.972;2023-07-20T14:17:35;3.47;;;1.48;;
11709;SDS011;5911;51.036;6.972;2023-07-20T14:20:04;2.60;;;1.23;;
11709;SDS011;5911;51.036;6.972;2023-07-20T14:22:47;1.15;;;0.93;;
11709;SDS011;5911;51.036;6.972;2023-07-20T14:25:18;1.55;;;1.00;;
11709;SDS011;5911;51.036;6.972;2023-07-20T14:27:46;4.82;;;1.13;;
11709;SDS011;5911;51.036;6.972;2023-07-20T14:30:14;2.97;;;0.90;;
11709;SDS011;5911;51.036;6.972;2023-07-20T14:32:43;2.35;;;1.05;;
11709;SDS011;5911;51.036;6.972;2023-07-20T14:35:11;3.10;;;1.10;;
11709;SDS011;5911;51.036;6.972;2023-07-20T14:37:40;1.10;;;1.00;;
11709;SDS011;5911;51.036;6.972;2023-07-20T14:40:09;1.08;;;0.90;;
11709;SDS011;5911;51.036;6.972;2023-07-20T14:42:38;1.35;;;0.90;;
11709;SDS011;5911;51.036;6.972;2023-07-20T14:45:06;1.30;;;0.70;;
11709;SDS011;5911;51.036;6.972;2023-07-20T14:47:35;3.67;;;1.02;;
11709;SDS011;5911;51.036;6.972;2023-07-20T14:50:06;1.02;;;0.93;;
11709;SDS011;5911;51.036;6.972;2023-07-20T14:52:34;2.10;;;0.93;;
11709;SDS011;5911;51.036;6.972;2023-07-20T14:55:13;5.88;;;1.25;;
11709;SDS011;5911;51.036;6.972;2023-07-20T14:57:42;1.23;;;0.68;;
11709;SDS011;5911;51.036;6.972;2023-07-20T15:00:11;1.85;;;0.73;;
11709;SDS011;5911;51.036;6.972;2023-07-20T15:02:40;4.82;;;0.90;;
11709;SDS011;5911;51.036;6.972;2023-07-20T15:05:10;2.50;;;1.00;;
11709;SDS011;5911;51.036;6.972;2023-07-20T15:07:38;1.00;;;0.88;;
11709;SDS011;5911;51.036;6.972;2023-07-20T15:10:06;1.30;;;0.82;;
11709;SDS011;5911;51.036;6.972;2023-07-20T15:12:34;1.02;;;0.82;;
11709;SDS011;5911;51.036;6.972;2023-07-20T15:15:08;1.63;;;0.63;;
11709;SDS011;5911;51.036;6.972;2023-07-20T15:17:37;1.45;;;1.00;;
11709;SDS011;5911;51.036;6.972;2023-07-20T15:20:06;1.27;;;1.00;;
11709;SDS011;5911;51.036;6.972;2023-07-20T15:22:35;1.42;;;0.90;;